Time;durP1;ratioP1;P1;durP2;ratioP2;P2;SDS_P1;SDS_P2;PMS_P1;PMS_P2;Temp;Humidity;BMP_temperature;BMP_pressure;BME280_temperature;BME280_humidity;BME280_pressure;Samples;Min_cycle;Max_cycle;Signal;HPM_P1;HPM_P2
2022/04/23 00:01:37;;;;;;;;;;;;;;;10.22;55.73;91417.94;2055740;70;20059;-69
2022/04/23 00:04:02;;;;;;;;;;;;;;;10.12;56.95;91416.16;2055601;70;20431;-70
2022/04/23 00:06:28;;;;;;;;;;;;;;;10.09;56.21;91416.72;2068507;69;20054;-67
2022/04/23 00:08:54;;;;;;;;;;;;;;;9.85;56.99;91417.16;2071211;69;20055;-67
2022/04/23 00:11:19;;;;;;;;;;;;;;;10.02;56.25;91421.34;2055773;69;20050;-67
2022/04/23 00:13:45;;;;;;;;;;;;;;;10.08;55.69;91424.44;2068635;69;20086;-69
2022/04/23 00:16:14;;;;;;;;;;;;;;;10.08;55.33;91420.88;2054825;70;20139;-68
2022/04/23 00:18:39;;;;;;;;;;;;;;;9.99;56.01;91417.03;2070519;69;20050;-68
2022/04/23 00:21:05;;;;;;;;;;;;;;;9.98;55.94;91423.28;2055512;70;20053;-68
2022/04/23 00:23:31;;;;;;;;;;;;;;;9.91;55.05;91422.31;2055529;70;20057;-67
2022/04/23 00:25:58;;;;;;;;;;;;;;;9.86;55.88;91427.03;2055477;69;20054;-68
2022/04/23 00:28:24;;;;;;;;;;;;;;;9.85;56.66;91419.22;2055056;69;20115;-68
2022/04/23 00:30:52;;;;;;;;;;;;;;;9.76;57.39;91423.03;2055425;70;20572;-68
2022/04/23 00:33:18;;;;;;;;;;;;;;;9.69;56.87;91422.06;2055611;70;20074;-68
2022/04/23 00:35:44;;;;;;;;;;;;;;;9.71;55.99;91419.31;2055628;69;20054;-69
2022/04/23 00:38:09;;;;;;;;;;;;;;;9.72;56.00;91425.69;2055563;70;20066;-69
2022/04/23 00:40:35;;;;;;;;;;;;;;;9.62;56.89;91426.69;2055756;70;20053;-69
2022/04/23 00:43:01;;;;;;;;;;;;;;;9.54;57.99;91429.16;2055766;70;20081;-69
2022/04/23 00:45:27;;;;;;;;;;;;;;;9.50;57.05;91426.16;2055650;70;20057;-69
2022/04/23 00:47:53;;;;;;;;;;;;;;;9.53;58.48;91426.97;2055652;70;20054;-69
2022/04/23 00:50:22;;;;;;;;;;;;;;;9.54;58.08;91425.63;2055342;70;20061;-68
2022/04/23 00:52:52;;;;;;;;;;;;;;;9.54;57.85;91426.34;2054839;70;20085;-69
2022/04/23 00:55:18;;;;;;;;;;;;;;;9.39;58.17;91419.38;2055587;70;20102;-69
2022/04/23 00:57:44;;;;;;;;;;;;;;;9.46;57.17;91425.25;2055605;70;20088;-69
2022/04/23 01:00:09;;;;;;;;;;;;;;;9.41;57.74;91427.16;2054395;70;20513;-69
2022/04/23 01:02:36;;;;;;;;;;;;;;;9.34;58.25;91431.75;2055119;69;20054;-70
2022/04/23 01:05:02;;;;;;;;;;;;;;;9.36;57.54;91422.72;2055370;70;20050;-71
2022/04/23 01:07:28;;;;;;;;;;;;;;;9.20;59.22;91410.75;2055425;70;20585;-71
2022/04/23 01:09:53;;;;;;;;;;;;;;;9.29;56.79;91413.28;2054933;69;20062;-69
2022/04/23 01:12:19;;;;;;;;;;;;;;;9.25;57.87;91418.72;2054617;69;20385;-69
2022/04/23 01:15:03;;;;;;;;;;;;;;;9.23;58.22;91409.50;2050372;69;20051;-69
2022/04/23 01:17:29;;;;;;;;;;;;;;;9.42;55.88;91406.84;2049010;70;20058;-69
2022/04/23 01:19:54;;;;;;;;;;;;;;;9.36;56.70;91406.59;2048694;70;20055;-70
2022/04/23 01:22:22;;;;;;;;;;;;;;;9.33;58.10;91410.66;2048437;70;20452;-69
2022/04/23 01:24:50;;;;;;;;;;;;;;;9.15;58.19;91399.34;2048613;70;20148;-69
2022/04/23 01:27:15;;;;;;;;;;;;;;;9.11;58.91;91404.03;2048158;70;20583;-70
2022/04/23 01:29:41;;;;;;;;;;;;;;;9.02;59.02;91405.75;2048718;70;20158;-69
2022/04/23 01:32:06;;;;;;;;;;;;;;;9.03;58.78;91401.63;2048682;70;20067;-69
2022/04/23 01:34:32;;;;;;;;;;;;;;;9.14;56.61;91397.91;2048690;70;20055;-69
2022/04/23 01:36:58;;;;;;;;;;;;;;;9.01;58.55;91384.66;2048675;70;20536;-69
2022/04/23 01:39:23;;;;;;;;;;;;;;;8.77;59.86;91395.50;2048446;70;20043;-69
2022/04/23 01:41:48;;;;;;;;;;;;;;;8.95;59.37;91398.44;2048959;70;20054;-69
2022/04/23 01:44:14;;;;;;;;;;;;;;;8.92;58.39;91388.47;2048798;70;20517;-69
2022/04/23 01:46:39;;;;;;;;;;;;;;;8.86;59.67;91388.91;2048607;70;20074;-69
2022/04/23 01:49:05;;;;;;;;;;;;;;;9.00;57.56;91393.72;2048487;70;20058;-67
2022/04/23 01:51:31;;;;;;;;;;;;;;;8.99;58.15;91401.44;2048568;70;20160;-69
2022/04/23 01:53:56;;;;;;;;;;;;;;;9.01;56.46;91409.94;2048342;70;20062;-69
2022/04/23 01:56:21;;;;;;;;;;;;;;;9.16;54.45;91400.81;2048149;70;20051;-71
2022/04/23 01:58:47;;;;;;;;;;;;;;;8.85;59.28;91415.53;2048707;70;20507;-69
2022/04/23 02:01:12;;;;;;;;;;;;;;;8.95;58.49;91412.47;2048420;70;20055;-69
2022/04/23 02:03:38;;;;;;;;;;;;;;;8.81;58.19;91412.53;2048408;70;20500;-71
2022/04/23 02:06:04;;;;;;;;;;;;;;;8.80;58.27;91419.50;2048836;70;20182;-69
2022/04/23 02:08:30;;;;;;;;;;;;;;;8.87;58.04;91426.13;2048824;70;20054;-68
2022/04/23 02:10:55;;;;;;;;;;;;;;;8.74;59.47;91424.81;2048619;70;20174;-68
2022/04/23 02:13:21;;;;;;;;;;;;;;;8.71;59.81;91426.09;2050723;70;20095;-69
2022/04/23 02:15:46;;;;;;;;;;;;;;;8.42;61.42;91432.41;2055413;69;20119;-69
2022/04/23 02:18:14;;;;;;;;;;;;;;;8.61;59.59;91429.16;2055298;69;20061;-71
2022/04/23 02:20:39;;;;;;;;;;;;;;;8.59;59.62;91420.63;2055202;70;20052;-69
2022/04/23 02:23:06;;;;;;;;;;;;;;;8.54;60.54;91429.47;2055075;69;20139;-70
2022/04/23 02:25:35;;;;;;;;;;;;;;;8.48;59.41;91432.72;2055105;70;20488;-69
2022/04/23 02:28:01;;;;;;;;;;;;;;;8.43;60.01;91424.72;2055250;70;20501;-69
2022/04/23 02:30:26;;;;;;;;;;;;;;;8.35;60.52;91431.38;2054997;70;20050;-69
2022/04/23 02:32:52;;;;;;;;;;;;;;;8.37;60.44;91427.97;2067804;69;20124;-69
2022/04/23 02:35:19;;;;;;;;;;;;;;;8.37;59.91;91427.97;2055297;70;20088;-68
2022/04/23 02:37:45;;;;;;;;;;;;;;;8.25;60.62;91427.38;2054922;70;20058;-69
2022/04/23 02:40:11;;;;;;;;;;;;;;;8.31;60.76;91424.84;2054929;70;20050;-70
2022/04/23 02:42:37;;;;;;;;;;;;;;;8.47;58.74;91430.53;2055500;70;20065;-70
2022/04/23 02:45:03;;;;;;;;;;;;;;;8.36;59.42;91432.84;2055483;70;20058;-72
2022/04/23 02:47:29;;;;;;;;;;;;;;;8.44;59.75;91432.53;2055491;69;20058;-70
2022/04/23 02:49:55;;;;;;;;;;;;;;;8.32;59.79;91426.31;2055432;70;20057;-71
2022/04/23 02:52:20;;;;;;;;;;;;;;;8.37;60.18;91430.78;2055552;70;20510;-71
2022/04/23 02:54:46;;;;;;;;;;;;;;;8.21;60.72;91424.38;2055494;70;20074;-69
2022/04/23 02:57:11;;;;;;;;;;;;;;;8.14;62.24;91421.25;2055535;70;20050;-70
2022/04/23 02:59:37;;;;;;;;;;;;;;;8.27;60.05;91414.16;2068413;69;20144;-69
2022/04/23 03:02:03;;;;;;;;;;;;;;;8.26;59.88;91415.53;2065606;69;20485;-69
2022/04/23 03:04:29;;;;;;;;;;;;;;;8.21;59.48;91402.66;2055418;70;20469;-69
2022/04/23 03:06:55;;;;;;;;;;;;;;;7.68;63.50;91422.47;2055564;70;20046;-70
2022/04/23 03:09:21;;;;;;;;;;;;;;;7.96;60.57;91420.34;2055329;70;20042;-70
2022/04/23 03:11:47;;;;;;;;;;;;;;;7.91;61.01;91415.91;2055609;69;20058;-68
2022/04/23 03:14:12;;;;;;;;;;;;;;;7.98;61.14;91426.06;2055342;70;20446;-69
2022/04/23 03:16:38;;;;;;;;;;;;;;;7.97;61.21;91413.41;2055422;69;20047;-69
2022/04/23 03:19:03;;;;;;;;;;;;;;;8.01;61.49;91410.06;2055624;70;20057;-69
2022/04/23 03:21:29;;;;;;;;;;;;;;;8.01;61.13;91410.06;2055373;70;20119;-70
2022/04/23 03:23:54;;;;;;;;;;;;;;;7.86;60.97;91408.66;2055324;69;20050;-70
2022/04/23 03:26:20;;;;;;;;;;;;;;;8.26;58.54;91417.59;2055924;70;20050;-70
2022/04/23 03:28:45;;;;;;;;;;;;;;;8.05;60.99;91407.47;2056149;70;20046;-70
2022/04/23 03:31:11;;;;;;;;;;;;;;;7.88;61.95;91412.28;2056125;70;20078;-70
2022/04/23 03:33:36;;;;;;;;;;;;;;;7.79;61.88;91404.84;2055939;70;20061;-70
2022/04/23 03:36:02;;;;;;;;;;;;;;;7.65;62.84;91404.09;2055912;69;20080;-69
2022/04/23 03:38:28;;;;;;;;;;;;;;;7.83;62.29;91405.03;2055786;69;20066;-71
2022/04/23 03:40:54;;;;;;;;;;;;;;;7.70;62.00;91402.97;2055943;69;20080;-72
2022/04/23 03:43:20;;;;;;;;;;;;;;;7.87;60.51;91408.00;2055940;69;20133;-70
2022/04/23 03:45:45;;;;;;;;;;;;;;;7.96;58.67;91411.22;2068948;69;20432;-70
2022/04/23 03:48:12;;;;;;;;;;;;;;;7.73;61.27;91410.13;2055913;69;20077;-69
2022/04/23 03:50:38;;;;;;;;;;;;;;;7.71;61.48;91410.03;2068910;69;20070;-69
2022/04/23 03:53:04;;;;;;;;;;;;;;;7.60;61.82;91405.25;2068813;69;20420;-71
2022/04/23 03:55:31;;;;;;;;;;;;;;;7.68;61.29;91404.94;2055977;69;20492;-71
2022/04/23 03:57:57;;;;;;;;;;;;;;;7.68;60.93;91404.94;2055885;69;20042;-71
2022/04/23 04:00:22;;;;;;;;;;;;;;;7.75;60.45;91399.03;2068869;69;20061;-70
2022/04/23 04:02:48;;;;;;;;;;;;;;;7.81;58.91;91393.72;2055842;70;20073;-71
2022/04/23 04:05:14;;;;;;;;;;;;;;;7.63;60.72;91398.41;2068829;69;20563;-71
2022/04/23 04:07:41;;;;;;;;;;;;;;;7.70;59.99;91388.97;2055883;69;20103;-70
2022/04/23 04:10:06;;;;;;;;;;;;;;;7.70;60.61;91391.03;2055711;69;20050;-70
2022/04/23 04:12:32;;;;;;;;;;;;;;;7.48;61.62;91399.75;2055779;70;20050;-70
2022/04/23 04:14:57;;;;;;;;;;;;;;;7.57;62.04;91395.31;2055746;70;20070;-71
2022/04/23 04:17:23;;;;;;;;;;;;;;;7.54;61.43;91388.13;2055837;70;20224;-70
2022/04/23 04:19:48;;;;;;;;;;;;;;;7.44;63.35;91390.44;2068737;69;20151;-70
2022/04/23 04:22:14;;;;;;;;;;;;;;;7.64;60.90;91383.78;2068723;69;20050;-69
2022/04/23 04:24:40;;;;;;;;;;;;;;;7.57;61.47;91375.69;2055649;69;20069;-70
2022/04/23 04:27:07;;;;;;;;;;;;;;;7.40;62.74;91376.94;2055754;70;20173;-70
2022/04/23 04:29:32;;;;;;;;;;;;;;;7.39;62.69;91383.91;2055977;69;20054;-70
2022/04/23 04:31:57;;;;;;;;;;;;;;;7.45;61.46;91373.00;2055783;70;20077;-71
2022/04/23 04:34:24;;;;;;;;;;;;;;;7.52;62.33;91371.25;2055755;70;20054;-72
2022/04/23 04:36:50;;;;;;;;;;;;;;;7.53;61.27;91381.09;2068765;69;20545;-71
2022/04/23 04:39:16;;;;;;;;;;;;;;;7.37;63.54;91373.31;2055624;69;20047;-70
2022/04/23 04:41:42;;;;;;;;;;;;;;;7.46;61.64;91376.53;2068787;69;20524;-71
2022/04/23 04:44:08;;;;;;;;;;;;;;;7.54;61.96;91379.75;2055757;70;20114;-70
2022/04/23 04:46:34;;;;;;;;;;;;;;;7.50;61.37;91377.47;2055881;69;20186;-71
2022/04/23 04:49:00;;;;;;;;;;;;;;;7.43;62.48;91377.78;2055769;70;20053;-69
2022/04/23 04:51:25;;;;;;;;;;;;;;;7.48;62.56;91377.38;2055858;70;20058;-70
2022/04/23 04:53:53;;;;;;;;;;;;;;;7.47;62.90;91377.97;2055676;70;20046;-70
2022/04/23 04:56:19;;;;;;;;;;;;;;;7.39;62.31;91376.22;2055722;70;20429;-70
2022/04/23 04:58:46;;;;;;;;;;;;;;;7.39;63.06;91386.69;2055727;69;20060;-70
2022/04/23 05:01:12;;;;;;;;;;;;;;;7.58;60.86;91388.34;2055667;70;20050;-71
2022/04/23 05:03:39;;;;;;;;;;;;;;;7.58;62.34;91389.06;2055669;70;20062;-70
2022/04/23 05:06:05;;;;;;;;;;;;;;;7.44;63.60;91393.22;2055699;69;20061;-71
2022/04/23 05:08:30;;;;;;;;;;;;;;;7.54;62.40;91382.53;2055549;70;20149;-70
2022/04/23 05:10:56;;;;;;;;;;;;;;;7.57;62.38;91392.50;2055685;70;20133;-69
2022/04/23 05:13:21;;;;;;;;;;;;;;;7.53;62.92;91403.50;2063990;69;20138;-70
2022/04/23 05:15:48;;;;;;;;;;;;;;;7.56;62.71;91394.59;2048529;70;20053;-70
2022/04/23 05:18:14;;;;;;;;;;;;;;;7.55;62.86;91409.91;2049081;70;20062;-70
2022/04/23 05:20:39;;;;;;;;;;;;;;;7.51;63.50;91406.19;2048673;70;20055;-70
2022/04/23 05:23:05;;;;;;;;;;;;;;;7.57;62.21;91401.63;2049069;70;20518;-69
2022/04/23 05:25:30;;;;;;;;;;;;;;;7.47;62.45;91405.97;2049098;70;20055;-69
2022/04/23 05:27:57;;;;;;;;;;;;;;;7.49;63.04;91412.41;2045805;70;20047;-70
2022/04/23 05:30:23;;;;;;;;;;;;;;;7.81;61.16;91416.13;2049208;70;20417;-70
2022/04/23 05:32:48;;;;;;;;;;;;;;;7.68;62.52;91414.06;2049072;70;20486;-70
2022/04/23 05:35:14;;;;;;;;;;;;;;;7.57;63.12;91410.03;2048662;70;20055;-69
2022/04/23 05:37:40;;;;;;;;;;;;;;;7.59;63.03;91412.94;2048525;70;20051;-70
2022/04/23 05:40:06;;;;;;;;;;;;;;;7.76;61.23;91408.88;2048931;70;20395;-70
2022/04/23 05:42:31;;;;;;;;;;;;;;;7.82;62.08;91411.97;2049163;70;20083;-72
2022/04/23 05:44:57;;;;;;;;;;;;;;;7.83;62.96;91413.44;2049158;70;20051;-70
2022/04/23 05:47:22;;;;;;;;;;;;;;;7.95;61.52;91413.31;2048313;70;20136;-72
2022/04/23 05:49:48;;;;;;;;;;;;;;;8.10;60.39;91412.66;2048495;70;20082;-71
2022/04/23 05:52:13;;;;;;;;;;;;;;;8.15;61.66;91403.09;2049024;70;20121;-70
2022/04/23 05:54:39;;;;;;;;;;;;;;;8.27;61.70;91405.75;2048963;70;20059;-69
2022/04/23 05:57:04;;;;;;;;;;;;;;;8.31;60.87;91403.16;2049078;70;20055;-70
2022/04/23 05:59:31;;;;;;;;;;;;;;;8.10;62.78;91407.03;2049192;70;20087;-69
2022/04/23 06:01:57;;;;;;;;;;;;;;;8.43;60.72;91402.28;2048448;70;20474;-69
2022/04/23 06:04:23;;;;;;;;;;;;;;;8.74;60.47;91398.84;2049125;70;20047;-70
2022/04/23 06:06:49;;;;;;;;;;;;;;;8.58;62.43;91404.44;2049026;70;20081;-72
2022/04/23 06:09:14;;;;;;;;;;;;;;;8.75;59.90;91409.47;2048920;70;20086;-71
2022/04/23 06:11:39;;;;;;;;;;;;;;;8.67;61.90;91406.28;2048987;70;20069;-70
2022/04/23 06:14:05;;;;;;;;;;;;;;;8.94;60.94;91404.69;2053199;70;20362;-72
2022/04/23 06:16:30;;;;;;;;;;;;;;;8.36;63.57;91409.69;2055607;70;20090;-72
2022/04/23 06:18:56;;;;;;;;;;;;;;;8.46;63.74;91403.84;2055594;69;20043;-72
2022/04/23 06:21:21;;;;;;;;;;;;;;;9.09;61.42;91410.31;2055539;69;20053;-71
2022/04/23 06:23:47;;;;;;;;;;;;;;;9.27;60.46;91401.97;2055503;70;20378;-71
2022/04/23 06:26:12;;;;;;;;;;;;;;;9.40;61.21;91408.88;2068538;69;20046;-72
2022/04/23 06:28:38;;;;;;;;;;;;;;;9.40;56.50;91394.81;2055626;69;20077;-68
2022/04/23 06:31:03;;;;;;;;;;;;;;;9.83;56.00;91394.56;2055475;70;20050;-68
2022/04/23 06:33:29;;;;;;;;;;;;;;;10.13;53.15;91389.50;2055548;69;20050;-69
2022/04/23 06:35:54;;;;;;;;;;;;;;;10.36;52.69;91393.25;2055531;70;20107;-69
2022/04/23 06:38:20;;;;;;;;;;;;;;;10.52;54.46;91395.97;2068418;69;20054;-69
2022/04/23 06:40:45;;;;;;;;;;;;;;;10.44;55.61;91387.94;2055562;70;20054;-69
2022/04/23 06:43:11;;;;;;;;;;;;;;;10.29;57.94;91391.56;2055519;69;20058;-71
2022/04/23 06:45:43;;;;;;;;;;;;;;;10.80;55.96;91399.91;2068478;69;20420;-68
2022/04/23 06:48:08;;;;;;;;;;;;;;;10.84;55.75;91402.88;2055609;70;20050;-69
2022/04/23 06:50:35;;;;;;;;;;;;;;;10.94;54.83;91403.28;2055519;70;20050;-70
2022/04/23 06:53:01;;;;;;;;;;;;;;;11.03;56.35;91395.16;2055389;70;20043;-70
2022/04/23 06:55:27;;;;;;;;;;;;;;;11.38;52.73;91392.25;2055471;69;20485;-71
2022/04/23 06:57:53;;;;;;;;;;;;;;;11.75;53.35;91390.75;2055510;69;20038;-69
2022/04/23 07:00:21;;;;;;;;;;;;;;;12.00;53.67;91377.53;2068942;69;20200;-68
2022/04/23 07:02:47;;;;;;;;;;;;;;;12.24;49.27;91377.66;2055964;70;20596;-68
2022/04/23 07:05:12;;;;;;;;;;;;;;;12.35;52.51;91379.41;2056059;70;20501;-69
2022/04/23 07:07:38;;;;;;;;;;;;;;;12.69;52.30;91374.91;2056012;69;20425;-68
2022/04/23 07:10:04;;;;;;;;;;;;;;;12.75;50.92;91373.66;2055868;70;20494;-68
2022/04/23 07:12:29;;;;;;;;;;;;;;;12.97;49.82;91363.03;2055915;70;20137;-70
2022/04/23 07:14:55;;;;;;;;;;;;;;;13.55;50.27;91368.28;2055845;70;20061;-69
2022/04/23 07:17:24;;;;;;;;;;;;;;;13.29;50.47;91354.84;2055975;70;20066;-71
2022/04/23 07:19:53;;;;;;;;;;;;;;;13.22;49.10;91364.50;2055882;70;20046;-70
2022/04/23 07:22:19;;;;;;;;;;;;;;;13.84;49.01;91358.50;2068985;69;20193;-70
2022/04/23 07:24:44;;;;;;;;;;;;;;;14.07;47.75;91354.88;2068794;69;20129;-72
2022/04/23 07:27:11;;;;;;;;;;;;;;;13.98;47.09;91356.06;2056162;70;20069;-70
2022/04/23 07:29:36;;;;;;;;;;;;;;;14.27;47.03;91360.34;2056035;70;20223;-72
2022/04/23 07:32:02;;;;;;;;;;;;;;;14.60;47.59;91367.56;2055909;70;20491;-71
2022/04/23 07:39:57;;;;;;;;;;;;;;;14.85;46.86;91368.88;2055889;70;20490;-70
2022/04/23 07:42:23;;;;;;;;;;;;;;;15.07;45.69;91359.44;2055918;69;20133;-71
2022/04/23 07:44:48;;;;;;;;;;;;;;;15.22;46.00;91359.09;2056123;70;20160;-71
2022/04/23 07:47:14;;;;;;;;;;;;;;;15.43;46.52;91359.53;2068862;69;20119;-69
2022/04/23 07:49:39;;;;;;;;;;;;;;;15.15;46.38;91363.19;2056010;69;20408;-72
2022/04/23 07:52:05;;;;;;;;;;;;;;;15.32;46.24;91358.59;2055901;70;20502;-69
2022/04/23 07:54:30;;;;;;;;;;;;;;;14.66;46.14;91350.00;2055772;70;20596;-72
2022/04/23 07:56:56;;;;;;;;;;;;;;;14.60;47.32;91349.84;2068859;69;20561;-69
2022/04/23 07:59:22;;;;;;;;;;;;;;;15.03;46.21;91353.69;2055807;70;20054;-72
2022/04/23 08:01:48;;;;;;;;;;;;;;;15.03;45.82;91359.34;2055865;69;20051;-72
2022/04/23 08:04:13;;;;;;;;;;;;;;;15.39;45.08;91359.44;2055864;70;20397;-71
2022/04/23 08:06:39;;;;;;;;;;;;;;;14.88;46.18;91353.34;2055823;69;20136;-73
2022/04/23 08:09:04;;;;;;;;;;;;;;;15.34;45.20;91349.41;2055812;69;20149;-73
2022/04/23 08:11:30;;;;;;;;;;;;;;;15.36;45.08;91343.81;2055848;70;20078;-73
2022/04/23 08:13:56;;;;;;;;;;;;;;;15.11;46.30;91342.53;2055816;69;20092;-72
2022/04/23 08:16:22;;;;;;;;;;;;;;;15.36;44.95;91335.28;2055937;70;20136;-69
2022/04/23 08:18:49;;;;;;;;;;;;;;;15.45;44.85;91331.25;2055802;70;20058;-73
2022/04/23 08:21:14;;;;;;;;;;;;;;;15.18;44.94;91327.13;2055929;70;20567;-71
2022/04/23 08:23:40;;;;;;;;;;;;;;;15.66;44.10;91333.09;2055736;70;20054;-70
2022/04/23 08:26:05;;;;;;;;;;;;;;;15.82;45.02;91341.25;2068928;69;20432;-68
2022/04/23 08:31:15;;;;;;;;;;;;;;;15.55;44.23;91331.44;2055835;70;20119;-71
2022/04/23 08:33:59;;;;;;;;;;;;;;;15.36;44.81;91327.50;2055770;70;20066;-69
2022/04/23 08:36:29;;;;;;;;;;;;;;;15.75;43.98;91325.47;2055919;70;20473;-72
2022/04/23 08:38:56;;;;;;;;;;;;;;;15.73;43.59;91328.28;2055748;69;20054;-70
2022/04/23 08:41:30;;;;;;;;;;;;;;;16.05;43.68;91324.63;2055881;69;20086;-71
2022/04/23 08:44:04;;;;;;;;;;;;;;;16.44;42.84;91323.19;2055640;70;20061;-71
2022/04/23 08:46:30;;;;;;;;;;;;;;;16.70;42.59;91320.09;2055822;70;20505;-69
2022/04/23 08:49:06;;;;;;;;;;;;;;;16.60;43.37;91317.81;2055763;70;20085;-75
2022/04/23 08:51:33;;;;;;;;;;;;;;;16.60;42.82;91314.97;2055761;70;20089;-72
2022/04/23 08:54:01;;;;;;;;;;;;;;;16.83;42.95;91304.69;2055620;69;20066;-74
2022/04/23 08:56:26;;;;;;;;;;;;;;;16.99;41.87;91304.22;2055733;70;20093;-69
2022/04/23 08:58:52;;;;;;;;;;;;;;;16.93;41.39;91295.59;2055856;70;20090;-74
2022/04/23 09:01:18;;;;;;;;;;;;;;;16.83;42.00;91301.13;2055838;70;20465;-73
2022/04/23 09:03:43;;;;;;;;;;;;;;;16.97;41.46;91304.19;2055739;69;20050;-72
2022/04/23 09:06:09;;;;;;;;;;;;;;;16.89;41.59;91306.91;2055864;69;20415;-70
2022/04/23 09:08:34;;;;;;;;;;;;;;;17.15;41.55;91307.31;2055626;70;20054;-71
2022/04/23 09:10:59;;;;;;;;;;;;;;;17.48;41.02;91310.59;2055754;70;20394;-69
2022/04/23 09:13:26;;;;;;;;;;;;;;;17.59;40.94;91311.44;2055621;70;20061;-70
2022/04/23 09:24:14;;;;;;;;;;;;;;;16.57;41.47;91304.25;2055597;70;20155;-70
2022/04/23 09:26:40;;;;;;;;;;;;;;;17.20;41.45;91303.13;2055716;69;20167;-70
2022/04/23 09:29:16;;;;;;;;;;;;;;;17.12;41.84;91296.59;2055689;70;20057;-69
2022/04/23 09:31:42;;;;;;;;;;;;;;;16.77;42.20;91296.09;2055681;69;20114;-69
2022/04/23 09:34:15;;;;;;;;;;;;;;;16.90;41.79;91283.47;2055665;70;20142;-74
2022/04/23 09:36:54;;;;;;;;;;;;;;;17.24;41.36;91288.25;2055654;69;20090;-72
2022/04/23 09:39:34;;;;;;;;;;;;;;;17.91;41.02;91306.16;2055576;69;20058;-73
2022/04/23 09:42:19;;;;;;;;;;;;;;;18.41;40.22;91291.03;2055797;69;20118;-73
2022/04/23 09:44:46;;;;;;;;;;;;;;;18.64;39.64;91294.78;2055679;70;20170;-70
2022/04/23 09:47:27;;;;;;;;;;;;;;;18.82;38.72;91296.41;2068722;69;20097;-70
2022/04/23 09:49:57;;;;;;;;;;;;;;;19.03;38.00;91295.13;2055705;70;20086;-75
2022/04/23 09:52:29;;;;;;;;;;;;;;;19.21;37.46;91292.41;2055570;70;20050;-74
2022/04/23 09:54:55;;;;;;;;;;;;;;;18.90;37.41;91290.75;2055625;70;20115;-73
2022/04/23 09:57:22;;;;;;;;;;;;;;;19.14;35.67;91284.50;2055638;69;20084;-71
2022/04/23 09:59:51;;;;;;;;;;;;;;;19.15;36.13;91283.09;2055644;69;20085;-73
2022/04/23 10:02:19;;;;;;;;;;;;;;;19.14;37.43;91281.66;2055611;69;20050;-73
2022/04/23 10:04:45;;;;;;;;;;;;;;;18.86;37.66;91273.63;2055741;69;20054;-72
2022/04/23 10:07:11;;;;;;;;;;;;;;;19.07;37.64;91275.22;2055696;70;20046;-71
2022/04/23 10:09:39;;;;;;;;;;;;;;;19.20;37.55;91271.03;2055516;70;20052;-70
2022/04/23 10:12:08;;;;;;;;;;;;;;;20.13;36.53;91269.31;2055581;69;20055;-69
2022/04/23 10:14:39;;;;;;;;;;;;;;;20.04;37.02;91272.13;2055668;70;20051;-68
2022/04/23 10:17:06;;;;;;;;;;;;;;;19.30;37.06;91262.50;2055631;69;20482;-69
2022/04/23 10:19:32;;;;;;;;;;;;;;;20.67;37.11;91254.44;2068482;69;20050;-70
2022/04/23 10:22:04;;;;;;;;;;;;;;;21.02;35.10;91254.41;2068521;69;20111;-69
2022/04/23 10:24:48;;;;;;;;;;;;;;;21.27;34.75;91263.69;2055443;69;20054;-70
2022/04/23 10:27:14;;;;;;;;;;;;;;;21.22;33.49;91260.13;2055408;70;20080;-68
2022/04/23 10:29:40;;;;;;;;;;;;;;;20.85;34.05;91255.84;2054500;69;20093;-68
2022/04/23 10:32:08;;;;;;;;;;;;;;;21.18;33.21;91253.69;2055046;70;20090;-68
2022/04/23 10:34:34;;;;;;;;;;;;;;;21.21;33.46;91252.22;2055040;70;20059;-68
2022/04/23 10:37:29;;;;;;;;;;;;;;;20.69;33.95;91251.56;2054786;70;20053;-72
2022/04/23 10:39:55;;;;;;;;;;;;;;;20.12;35.10;91250.75;2054970;69;20073;-69
2022/04/23 10:42:24;;;;;;;;;;;;;;;20.95;34.42;91250.13;2055422;70;20506;-72
2022/04/23 10:44:50;;;;;;;;;;;;;;;20.57;33.75;91240.09;2055559;69;20078;-73
2022/04/23 10:47:30;;;;;;;;;;;;;;;20.44;34.82;91241.53;2055468;70;20153;-74
2022/04/23 10:50:25;;;;;;;;;;;;;;;20.42;33.94;91238.66;2055441;69;20062;-75
2022/04/23 10:52:53;;;;;;;;;;;;;;;21.00;34.21;91237.25;2055225;70;20426;-75
2022/04/23 10:55:18;;;;;;;;;;;;;;;21.21;33.34;91227.22;2055291;69;20171;-72
2022/04/23 10:57:50;;;;;;;;;;;;;;;21.13;33.66;91226.50;2055276;69;20513;-75
2022/04/23 11:00:17;;;;;;;;;;;;;;;21.48;32.62;91227.88;2055278;69;20054;-73
2022/04/23 11:02:46;;;;;;;;;;;;;;;21.12;32.51;91225.81;2068258;69;20055;-72
2022/04/23 11:13:47;;;;;;;;;;;;;;;22.14;31.07;91219.75;2055249;70;20172;-74
2022/04/23 11:16:17;;;;;;;;;;;;;;;22.74;30.75;91214.34;2055412;69;20409;-75
2022/04/23 11:18:44;;;;;;;;;;;;;;;21.48;31.78;91213.56;2055383;70;20142;-70
2022/04/23 11:21:37;;;;;;;;;;;;;;;21.79;30.53;91208.44;2055375;69;20049;-70
2022/04/23 11:24:02;;;;;;;;;;;;;;;21.91;30.96;91199.09;2054558;69;20050;-74
2022/04/23 11:26:42;;;;;;;;;;;;;;;21.52;30.85;91196.38;2054998;70;20625;-71
2022/04/23 11:29:07;;;;;;;;;;;;;;;21.95;31.06;91198.34;2054935;69;20069;-72
2022/04/23 11:31:33;;;;;;;;;;;;;;;21.94;30.66;91199.78;2054960;69;20397;-74
2022/04/23 11:34:00;;;;;;;;;;;;;;;21.25;30.97;91200.72;2054917;70;20112;-77
2022/04/23 11:36:26;;;;;;;;;;;;;;;20.49;30.99;91202.97;2055066;70;20358;-72
2022/04/23 11:38:52;;;;;;;;;;;;;;;21.13;31.30;91195.75;2055008;69;20051;-69
2022/04/23 11:41:38;;;;;;;;;;;;;;;21.77;30.75;91188.41;2054959;69;20131;-69
2022/04/23 11:44:10;;;;;;;;;;;;;;;20.87;31.27;91193.66;2055185;69;20062;-72
2022/04/23 11:46:46;;;;;;;;;;;;;;;20.72;31.24;91195.09;2055243;70;20054;-70
2022/04/23 11:49:30;;;;;;;;;;;;;;;20.95;31.30;91195.78;2055454;69;20125;-70
2022/04/23 11:52:06;;;;;;;;;;;;;;;20.63;31.41;91193.69;2055474;70;20046;-70
2022/04/23 11:54:32;;;;;;;;;;;;;;;19.95;32.03;91202.16;2068310;69;20513;-68
2022/04/23 11:56:57;;;;;;;;;;;;;;;20.67;31.81;91193.69;2055467;69;20057;-69
2022/04/23 11:59:23;;;;;;;;;;;;;;;20.64;32.23;91192.94;2055519;69;20085;-69
2022/04/23 12:01:48;;;;;;;;;;;;;;;20.74;32.15;91192.94;2068365;69;20084;-69
2022/04/23 12:04:14;;;;;;;;;;;;;;;21.43;31.17;91192.09;2055497;70;20057;-70
2022/04/23 12:06:43;;;;;;;;;;;;;;;21.05;31.63;91193.63;2055701;69;20054;-69
2022/04/23 12:09:09;;;;;;;;;;;;;;;20.55;32.50;91188.66;2068350;69;20078;-70
2022/04/23 12:11:35;;;;;;;;;;;;;;;20.18;31.65;91191.47;2055379;69;20111;-67
2022/04/23 12:14:02;;;;;;;;;;;;;;;20.12;32.18;91199.34;2055693;69;20062;-71
2022/04/23 12:16:35;;;;;;;;;;;;;;;19.90;32.29;91194.28;2068569;69;20057;-70
2022/04/23 12:19:02;;;;;;;;;;;;;;;21.17;31.90;91192.19;2055492;69;20058;-69
2022/04/23 12:21:27;;;;;;;;;;;;;;;22.19;30.02;91189.63;2068661;69;20062;-68
2022/04/23 12:23:53;;;;;;;;;;;;;;;22.61;29.84;91182.19;2055575;69;20447;-69
2022/04/23 12:26:19;;;;;;;;;;;;;;;22.69;30.65;91187.84;2068388;69;20070;-69
2022/04/23 12:42:28;;;;;;;;;;;;;;;20.08;31.63;91160.03;2055329;70;20146;-67
2022/04/23 12:44:54;;;;;;;;;;;;;;;20.52;31.54;91150.06;2068265;69;20485;-68
2022/04/23 12:47:29;;;;;;;;;;;;;;;20.97;31.79;91150.72;2055043;70;20073;-69
2022/04/23 12:49:56;;;;;;;;;;;;;;;21.02;32.16;91148.56;2054991;70;20149;-66
2022/04/23 12:52:23;;;;;;;;;;;;;;;20.81;31.63;91142.19;2055594;70;20062;-69
2022/04/23 12:55:07;;;;;;;;;;;;;;;21.06;31.96;91145.69;2055378;70;20570;-70
2022/04/23 12:57:33;;;;;;;;;;;;;;;21.79;31.35;91139.69;2055503;70;20061;-69
2022/04/23 12:59:58;;;;;;;;;;;;;;;22.11;30.22;91140.94;2068480;69;20133;-68
2022/04/23 13:02:24;;;;;;;;;;;;;;;24.79;27.51;91130.75;2055548;70;20142;-71
2022/04/23 13:04:49;;;;;;;;;;;;;;;22.45;28.31;91128.56;2055375;69;20062;-71
2022/04/23 13:09:59;;;;;;;;;;;;;;;21.22;31.22;91119.91;2055357;70;20081;-73
2022/04/23 13:12:25;;;;;;;;;;;;;;;20.65;32.05;91133.63;2055263;70;20050;-69
2022/04/23 13:14:51;;;;;;;;;;;;;;;20.62;31.12;91138.66;2055261;69;20057;-73
2022/04/23 13:17:16;;;;;;;;;;;;;;;21.47;31.38;91137.72;2055346;70;20050;-68
2022/04/23 13:19:43;;;;;;;;;;;;;;;22.20;30.82;91133.75;2055455;70;20086;-70
2022/04/23 13:22:09;;;;;;;;;;;;;;;22.64;30.45;91129.09;2055349;70;20475;-71
2022/04/23 13:24:34;;;;;;;;;;;;;;;22.24;31.01;91121.53;2068133;69;20146;-68
2022/04/23 13:27:01;;;;;;;;;;;;;;;22.23;28.11;91120.13;2055535;70;20149;-67
2022/04/23 13:29:26;;;;;;;;;;;;;;;21.80;28.65;91128.97;2055425;69;20436;-67
2022/04/23 13:31:52;;;;;;;;;;;;;;;20.81;31.08;91131.47;2055666;70;20153;-68
2022/04/23 13:34:17;;;;;;;;;;;;;;;20.81;31.44;91125.75;2055371;70;20050;-71